Palmer, Michigan
Current Conditions -  °F | °C
As of 1:37 AM on Wednesday 26 Nov 2014 (Local Time) from KSAW Reporting Station
Clear Clear  
Wind Chill: -4°   Ceiling: Unl
Heat Index: -4°   Visibility: 10mi
Dew Point: -9°   Wind: 0mph
Humidity: 82%   Direction: NA
Pressure: 30.1"   Gusts: NA
Location:  46.44°N, 87.59°W
Report Text: KSAW 260637Z AUTO 00000KT 10SM CLR M20/M23 A3010 RMK AO2 T12021226
Loading
Personal Weather Stations






























Interactive Weather Map New forecast layout! Learn more

10-Day Weather Forecast

Advertisements
Track Severe Weather on mobile